Time;durP1;ratioP1;P1;durP2;ratioP2;P2;SDS_P1;SDS_P2;PMS_P1;PMS_P2;Temp;Humidity;BMP_temperature;BMP_pressure;BME280_temperature;BME280_humidity;BME280_pressure;Samples;Min_cycle;Max_cycle;Signal;HPM_P1;HPM_P2
2022/05/31 00:01:53;;;;;;;4.88;4.38;;;10.20;99.90;;;;;;5070403;28;20481;-83
2022/05/31 00:04:19;;;;;;;6.17;4.53;;;10.20;99.90;;;;;;5072021;28;20423;-82
2022/05/31 00:06:45;;;;;;;6.47;4.40;;;10.20;99.90;;;;;;5070477;28;20473;-82
2022/05/31 00:09:12;;;;;;;5.35;4.75;;;10.20;99.90;;;;;;5070278;28;20733;-83
2022/05/31 00:11:37;;;;;;;4.50;4.10;;;10.30;99.90;;;;;;5070193;28;20397;-84
2022/05/31 00:14:04;;;;;;;5.63;4.75;;;10.20;99.90;;;;;;5071542;28;20374;-84
2022/05/31 00:16:30;;;;;;;5.20;4.70;;;10.30;99.90;;;;;;5069938;28;20381;-83
2022/05/31 00:18:56;;;;;;;6.43;4.70;;;10.30;99.90;;;;;;5070279;28;20390;-84
2022/05/31 00:21:35;;;;;;;6.40;4.87;;;10.30;99.90;;;;;;5070024;28;20374;-82
2022/05/31 00:24:01;;;;;;;7.13;4.80;;;10.40;99.90;;;;;;5070014;28;20378;-82
2022/05/31 00:26:26;;;;;;;5.07;4.57;;;10.40;99.90;;;;;;5069689;28;20523;-85
2022/05/31 00:28:52;;;;;;;5.70;4.90;;;10.30;99.90;;;;;;5071696;28;21012;-83
2022/05/31 00:31:18;;;;;;;5.65;4.80;;;10.30;99.90;;;;;;5070119;28;20389;-84
2022/05/31 00:33:43;;;;;;;5.97;4.63;;;10.30;99.90;;;;;;5071368;28;20390;-83
2022/05/31 00:36:10;;;;;;;5.50;4.72;;;10.30;99.90;;;;;;5070180;28;20378;-85
2022/05/31 00:38:35;;;;;;;6.45;5.07;;;10.20;99.90;;;;;;5071417;28;20374;-83
2022/05/31 00:41:24;;;;;;;5.57;4.45;;;10.30;99.90;;;;;;5070911;28;20918;-84
2022/05/31 00:44:03;;;;;;;5.93;4.80;;;10.30;99.90;;;;;;5071191;28;20386;-84
2022/05/31 00:46:50;;;;;;;5.50;4.80;;;10.30;99.90;;;;;;5069719;28;20397;-84
2022/05/31 00:49:41;;;;;;;4.95;4.45;;;10.20;99.90;;;;;;5086062;28;20879;-85
2022/05/31 00:52:29;;;;;;;4.85;4.40;;;10.30;99.90;;;;;;5070208;28;20394;-85
2022/05/31 00:55:02;;;;;;;4.93;4.35;;;10.30;99.90;;;;;;5069243;28;20386;-84
2022/05/31 00:57:29;;;;;;;5.07;4.57;;;10.30;99.90;;;;;;5070782;28;20902;-82
2022/05/31 00:59:59;;;;;;;5.10;4.53;;;10.30;99.90;;;;;;5069212;28;20740;-83
2022/05/31 01:02:25;;;;;;;5.20;4.57;;;10.20;99.90;;;;;;5070850;28;20397;-85
2022/05/31 01:04:55;;;;;;;5.43;4.15;;;10.20;99.90;;;;;;5069584;28;20500;-84
2022/05/31 01:07:21;;;;;;;5.43;3.90;;;10.30;99.90;;;;;;5069346;28;20431;-83
2022/05/31 01:09:46;;;;;;;4.57;4.18;;;10.30;99.90;;;;;;5069386;28;20465;-83
2022/05/31 01:12:15;;;;;;;4.90;4.20;;;10.30;99.90;;;;;;5070156;28;20390;-84
2022/05/31 01:14:41;;;;;;;4.70;4.30;;;10.30;99.90;;;;;;5069119;28;20436;-84
2022/05/31 01:17:14;;;;;;;4.60;4.10;;;10.40;99.90;;;;;;5069111;28;20397;-83
2022/05/31 01:19:55;;;;;;;4.30;3.60;;;10.30;99.90;;;;;;5070375;28;20374;-83
2022/05/31 01:22:41;;;;;;;5.88;4.22;;;10.20;99.90;;;;;;5068721;28;20410;-85
2022/05/31 01:25:24;;;;;;;4.33;3.93;;;10.20;99.90;;;;;;5069822;28;20428;-84
2022/05/31 01:28:14;;;;;;;5.20;3.80;;;10.10;99.90;;;;;;5068701;28;20390;-85
2022/05/31 01:31:05;;;;;;;4.10;3.70;;;10.10;99.90;;;;;;5070084;28;20436;-84
2022/05/31 01:33:42;;;;;;;4.50;4.10;;;10.20;99.90;;;;;;5069898;28;20409;-86
2022/05/31 01:36:18;;;;;;;4.95;4.10;;;10.10;99.90;;;;;;5068700;28;20381;-84
2022/05/31 01:39:05;;;;;;;4.60;4.20;;;10.20;99.90;;;;;;5068775;28;20389;-85
2022/05/31 01:41:55;;;;;;;5.50;4.63;;;10.10;99.90;;;;;;5068298;28;20794;-86
2022/05/31 01:44:23;;;;;;;4.53;4.10;;;10.10;99.90;;;;;;5069779;28;20382;-85
2022/05/31 01:46:52;;;;;;;4.28;3.97;;;10.10;99.90;;;;;;5069800;28;20458;-83
2022/05/31 01:49:19;;;;;;;5.45;3.97;;;10.10;99.90;;;;;;5069889;28;20378;-85
2022/05/31 01:51:45;;;;;;;4.28;3.78;;;10.10;99.90;;;;;;5068567;28;20785;-81
2022/05/31 01:54:14;;;;;;;4.20;3.80;;;10.20;99.90;;;;;;5069789;28;20437;-86
2022/05/31 01:56:42;;;;;;;4.55;4.00;;;10.10;99.90;;;;;;5068474;28;20382;-84
2022/05/31 01:59:09;;;;;;;4.40;4.00;;;10.10;99.90;;;;;;5067733;28;20409;-85
2022/05/31 02:01:37;;;;;;;4.80;4.05;;;10.00;99.90;;;;;;5069402;28;20374;-84
2022/05/31 02:04:03;;;;;;;4.90;4.05;;;10.00;99.90;;;;;;5067584;28;20392;-86
2022/05/31 02:06:29;;;;;;;4.20;3.78;;;10.00;99.90;;;;;;5069138;28;20868;-85
2022/05/31 02:08:55;;;;;;;4.23;3.83;;;10.00;99.90;;;;;;5067986;28;20447;-87
2022/05/31 02:11:21;;;;;;;5.80;4.27;;;10.00;99.90;;;;;;5067966;28;20403;-85
2022/05/31 02:13:46;;;;;;;4.07;3.77;;;10.00;99.90;;;;;;5069181;28;20821;-86
2022/05/31 02:16:13;;;;;;;4.10;3.70;;;9.90;99.90;;;;;;5069481;28;20374;-81
2022/05/31 02:21:23;;;;;;;4.10;3.75;;;9.90;99.90;;;;;;5069342;28;20385;-85
2022/05/31 02:23:49;;;;;;;7.05;4.03;;;9.90;99.90;;;;;;5068156;28;20390;-87
2022/05/31 02:26:15;;;;;;;5.37;3.67;;;9.90;99.90;;;;;;5069138;28;20410;-84
2022/05/31 02:28:41;;;;;;;5.35;3.75;;;9.90;99.90;;;;;;5067696;28;20946;-85
2022/05/31 02:31:06;;;;;;;3.70;3.40;;;9.80;99.90;;;;;;5069417;28;20375;-84
2022/05/31 02:33:32;;;;;;;4.47;4.00;;;9.80;99.90;;;;;;5067584;28;20414;-86
2022/05/31 02:35:58;;;;;;;3.50;3.20;;;9.80;99.90;;;;;;5067585;28;20401;-84
2022/05/31 02:38:23;;;;;;;4.15;3.35;;;9.80;99.90;;;;;;5068967;28;20451;-85
2022/05/31 02:40:49;;;;;;;5.10;3.67;;;9.90;99.90;;;;;;5068942;28;20424;-84
2022/05/31 02:43:14;;;;;;;4.70;3.87;;;9.80;99.90;;;;;;5069142;28;20895;-84
2022/05/31 02:45:40;;;;;;;4.38;3.50;;;9.80;99.90;;;;;;5069586;28;20370;-86
2022/05/31 02:48:06;;;;;;;4.13;3.80;;;9.70;99.90;;;;;;5068272;28;20414;-86
2022/05/31 02:50:31;;;;;;;4.03;3.60;;;9.70;99.90;;;;;;5069085;28;20474;-83
2022/05/31 02:52:57;;;;;;;4.70;3.63;;;9.80;99.90;;;;;;5067937;28;20373;-84
2022/05/31 02:55:23;;;;;;;3.90;3.60;;;9.80;99.90;;;;;;5068986;28;20386;-84
2022/05/31 02:57:48;;;;;;;3.83;3.53;;;9.80;99.90;;;;;;5068698;28;20408;-86
2022/05/31 03:00:14;;;;;;;4.30;3.47;;;9.80;99.90;;;;;;5069247;28;20370;-84
2022/05/31 03:02:40;;;;;;;3.40;3.10;;;9.80;99.90;;;;;;5068051;28;20406;-87
2022/05/31 03:05:07;;;;;;;4.63;3.40;;;9.80;99.90;;;;;;5068853;28;20374;-83
2022/05/31 03:07:32;;;;;;;3.92;3.53;;;9.80;99.90;;;;;;5069187;28;20843;-85
2022/05/31 03:09:58;;;;;;;3.50;3.20;;;9.80;99.90;;;;;;5068238;28;20478;-83
2022/05/31 03:12:26;;;;;;;7.15;3.78;;;9.80;99.90;;;;;;5067598;28;20370;-85
2022/05/31 03:15:16;;;;;;;7.13;4.38;;;9.80;99.90;;;;;;5070027;28;20478;-85
2022/05/31 03:17:51;;;;;;;3.90;3.13;;;9.80;99.90;;;;;;5087457;28;20382;-85
2022/05/31 03:20:23;;;;;;;3.77;3.37;;;9.80;99.90;;;;;;5071633;28;20498;-85
2022/05/31 03:23:01;;;;;;;4.80;3.50;;;9.70;99.90;;;;;;5072849;28;20397;-85
2022/05/31 03:25:28;;;;;;;4.15;3.60;;;9.70;99.90;;;;;;5071231;28;20390;-85
2022/05/31 03:27:59;;;;;;;3.88;3.38;;;9.60;99.90;;;;;;5071676;28;20393;-84
2022/05/31 03:30:25;;;;;;;4.10;3.40;;;9.60;99.90;;;;;;5073048;28;20373;-86
2022/05/31 03:32:52;;;;;;;3.80;3.50;;;9.60;99.90;;;;;;5071612;28;21174;-86
2022/05/31 03:35:18;;;;;;;3.90;3.55;;;9.50;99.90;;;;;;5071328;28;20899;-85
2022/05/31 03:37:44;;;;;;;4.40;3.63;;;9.60;99.90;;;;;;5071592;28;20428;-86
2022/05/31 03:40:10;;;;;;;4.00;3.60;;;9.60;99.90;;;;;;5071151;28;20393;-83
2022/05/31 03:42:36;;;;;;;4.00;3.63;;;9.60;99.90;;;;;;5072263;28;20413;-84
2022/05/31 03:45:01;;;;;;;3.83;3.40;;;9.70;99.90;;;;;;5072412;28;20386;-86
2022/05/31 03:47:27;;;;;;;4.32;3.92;;;9.70;99.90;;;;;;5072318;28;20385;-84
2022/05/31 03:49:52;;;;;;;4.13;3.58;;;9.80;99.90;;;;;;5071061;28;20466;-84
2022/05/31 03:52:18;;;;;;;3.90;3.53;;;9.80;99.90;;;;;;5071080;28;20587;-84
2022/05/31 03:54:44;;;;;;;3.85;3.50;;;9.90;99.90;;;;;;5072099;28;20381;-87
2022/05/31 03:57:18;;;;;;;3.70;3.40;;;10.00;99.90;;;;;;5071128;28;20378;-85
2022/05/31 03:59:43;;;;;;;4.23;3.57;;;10.00;99.90;;;;;;5070874;28;20398;-83
2022/05/31 04:02:09;;;;;;;5.90;3.53;;;10.00;99.90;;;;;;5070826;28;20425;-83
2022/05/31 04:04:34;;;;;;;5.65;3.75;;;9.90;99.90;;;;;;5071903;28;20393;-83
2022/05/31 04:07:00;;;;;;;7.50;3.70;;;10.00;99.90;;;;;;5071870;28;20377;-86
2022/05/31 04:09:26;;;;;;;9.80;3.90;;;10.00;99.90;;;;;;5070305;28;20494;-84
2022/05/31 04:11:55;;;;;;;10.07;4.30;;;10.00;99.90;;;;;;5071657;28;21058;-85
2022/05/31 04:14:21;;;;;;;8.38;3.78;;;9.90;99.90;;;;;;5071570;28;20472;-86
2022/05/31 04:16:46;;;;;;;6.10;4.07;;;9.90;99.90;;;;;;5071861;28;20951;-87
2022/05/31 04:19:12;;;;;;;6.23;3.77;;;9.90;99.90;;;;;;5071822;28;20899;-84
2022/05/31 04:21:38;;;;;;;5.83;4.00;;;10.00;99.90;;;;;;5070272;28;20742;-86
2022/05/31 04:24:08;;;;;;;4.95;3.70;;;10.00;99.90;;;;;;5071782;28;20876;-86
2022/05/31 04:26:45;;;;;;;4.63;4.22;;;10.00;99.90;;;;;;5070685;28;20386;-85
2022/05/31 04:29:11;;;;;;;5.47;3.97;;;10.10;99.90;;;;;;5071162;28;20394;-84
2022/05/31 04:31:36;;;;;;;5.57;3.80;;;10.10;99.90;;;;;;5070412;28;20702;-84
2022/05/31 04:34:04;;;;;;;8.70;4.00;;;10.30;99.90;;;;;;5071516;28;20373;-84
2022/05/31 04:36:30;;;;;;;7.53;3.88;;;10.30;99.90;;;;;;5071228;28;20932;-84
2022/05/31 04:38:56;;;;;;;13.43;4.85;;;10.60;99.90;;;;;;5071157;28;20371;-84
2022/05/31 04:41:27;;;;;;;11.90;4.60;;;10.60;99.90;;;;;;5069797;28;20490;-83
2022/05/31 04:43:55;;;;;;;16.55;5.00;;;10.80;99.90;;;;;;5069841;28;20471;-82
2022/05/31 04:46:24;;;;;;;13.88;4.60;;;11.10;99.90;;;;;;5071400;28;20370;-85
2022/05/31 04:48:52;;;;;;;6.13;3.58;;;11.50;99.90;;;;;;5070233;28;20374;-84
2022/05/31 04:51:18;;;;;;;6.47;3.40;;;11.70;99.90;;;;;;5071124;28;20431;-86
2022/05/31 04:53:44;;;;;;;4.78;3.17;;;12.00;99.90;;;;;;5070953;28;20378;-82
2022/05/31 04:56:19;;;;;;;3.77;3.20;;;12.40;99.90;;;;;;5071129;28;20428;-84
2022/05/31 04:58:45;;;;;;;5.35;3.63;;;12.70;99.90;;;;;;5069677;28;20903;-84
2022/05/31 05:01:11;;;;;;;4.20;3.13;;;13.00;99.90;;;;;;5070576;28;20433;-83
2022/05/31 05:03:37;;;;;;;4.73;3.13;;;13.30;99.90;;;;;;5069832;28;20436;-83
2022/05/31 05:06:08;;;;;;;4.43;3.35;;;13.50;99.90;;;;;;5069733;28;20426;-85
2022/05/31 05:08:35;;;;;;;8.93;3.67;;;13.70;99.90;;;;;;5069515;28;20465;-84
2022/05/31 05:11:01;;;;;;;26.02;4.70;;;13.90;99.90;;;;;;5070862;28;20405;-83
2022/05/31 05:13:28;;;;;;;6.65;3.60;;;14.10;99.90;;;;;;5070974;28;20370;-82
2022/05/31 05:15:55;;;;;;;4.60;3.15;;;14.20;99.90;;;;;;5072259;28;20396;-84
2022/05/31 05:18:22;;;;;;;7.07;3.17;;;14.30;99.90;;;;;;5070657;28;20406;-83
2022/05/31 05:20:49;;;;;;;6.68;2.97;;;14.60;99.90;;;;;;5071546;28;20382;-83
2022/05/31 05:23:15;;;;;;;6.18;3.10;;;15.00;99.90;;;;;;5069788;28;21064;-83
2022/05/31 05:25:41;;;;;;;5.20;2.90;;;15.50;99.90;;;;;;5069447;28;20485;-83
2022/05/31 05:30:51;;;;;;;4.10;2.30;;;16.00;99.90;;;;;;5070048;28;20447;-84
2022/05/31 05:33:17;;;;;;;5.00;2.58;;;15.90;99.90;;;;;;5068947;28;20424;-85
2022/05/31 05:35:43;;;;;;;3.50;2.53;;;15.90;99.90;;;;;;5070015;28;20781;-84
2022/05/31 05:38:09;;;;;;;3.53;2.20;;;15.80;99.90;;;;;;5068700;28;20392;-86
2022/05/31 05:40:35;;;;;;;4.43;2.00;;;15.80;99.90;;;;;;5069914;28;20448;-83
2022/05/31 05:43:01;;;;;;;4.18;2.20;;;15.80;99.90;;;;;;5102748;28;20398;-84
2022/05/31 05:45:26;;;;;;;3.70;2.10;;;15.60;99.90;;;;;;5069162;28;20500;-85
2022/05/31 05:47:52;;;;;;;5.17;2.30;;;15.50;99.90;;;;;;5070137;28;20374;-83
2022/05/31 05:50:18;;;;;;;4.13;2.38;;;15.40;99.90;;;;;;5070084;28;20478;-83
2022/05/31 05:52:48;;;;;;;5.33;2.50;;;15.40;99.90;;;;;;5069811;28;20386;-84
2022/05/31 05:55:14;;;;;;;6.03;2.60;;;15.30;99.90;;;;;;5070953;28;20378;-83
2022/05/31 05:57:39;;;;;;;6.60;3.17;;;15.20;99.90;;;;;;5069325;28;20764;-83
2022/05/31 06:00:07;;;;;;;6.87;3.30;;;15.20;99.90;;;;;;5068465;28;20930;-85
2022/05/31 06:02:32;;;;;;;7.20;3.50;;;15.20;99.90;;;;;;5069373;28;20410;-81
2022/05/31 06:05:35;;;;;;;7.50;3.75;;;15.10;99.90;;;;;;5065535;28;20391;-84
2022/05/31 06:08:24;;;;;;;8.48;3.47;;;15.10;99.90;;;;;;5048622;28;20425;-83
2022/05/31 06:11:04;;;;;;;10.30;4.72;;;15.20;99.90;;;;;;5051484;28;20455;-83
2022/05/31 06:13:39;;;;;;;9.53;4.43;;;15.30;99.90;;;;;;5068522;28;20374;-82
2022/05/31 06:16:08;;;;;;;6.85;3.47;;;15.40;99.90;;;;;;5069374;28;20941;-86
2022/05/31 06:18:51;;;;;;;8.73;3.95;;;15.70;99.90;;;;;;5067891;28;20723;-85
2022/05/31 06:21:20;;;;;;;7.63;3.33;;;16.00;99.90;;;;;;5067621;28;20378;-83
2022/05/31 06:23:49;;;;;;;8.68;3.20;;;16.50;99.90;;;;;;5067968;28;20469;-84
2022/05/31 06:26:16;;;;;;;7.78;2.95;;;16.80;99.90;;;;;;5068659;28;20385;-83
2022/05/31 06:28:43;;;;;;;5.75;2.67;;;17.10;99.90;;;;;;5070261;28;20443;-84
2022/05/31 06:31:08;;;;;;;6.88;2.78;;;17.50;99.90;;;;;;5069107;28;20379;-84
2022/05/31 06:33:34;;;;;;;6.47;2.67;;;17.80;99.90;;;;;;5068976;28;20384;-84
2022/05/31 06:36:01;;;;;;;5.33;2.43;;;;;;;;;;5068998;28;20371;-86
2022/05/31 06:38:29;;;;;;;6.57;2.45;;;;;;;;;;5066084;28;20438;-84
2022/05/31 06:40:56;;;;;;;7.03;2.67;;;;;;;;;;5068464;28;20392;-84
2022/05/31 06:43:23;;;;;;;18.75;3.58;;;;;;;;;;5067195;28;20393;-84
2022/05/31 06:45:49;;;;;;;5.43;2.38;;;;;;;;;;5068579;28;20437;-84
2022/05/31 06:48:15;;;;;;;6.47;2.70;;;;;;;;;;5067489;28;20906;-84
2022/05/31 06:50:40;;;;;;;7.05;2.60;;;19.30;99.90;;;;;;5068873;28;20370;-85
2022/05/31 06:58:34;;;;;;;6.57;2.85;;;19.30;99.50;;;;;;5068450;28;20459;-84
2022/05/31 07:01:04;;;;;;;7.30;3.27;;;19.60;99.80;;;;;;5069907;28;20883;-85
2022/05/31 07:03:30;;;;;;;4.93;2.42;;;19.90;98.60;;;;;;5070742;28;20405;-86
2022/05/31 07:05:59;;;;;;;6.38;2.70;;;20.00;97.20;;;;;;5068920;28;20385;-83
2022/05/31 07:08:25;;;;;;;6.63;2.63;;;20.40;98.10;;;;;;5069825;28;20898;-82
2022/05/31 07:10:52;;;;;;;4.95;2.65;;;20.50;96.00;;;;;;5068616;28;20406;-84
2022/05/31 07:13:18;;;;;;;5.95;2.97;;;20.50;95.20;;;;;;5070470;28;20410;-84
2022/05/31 07:15:44;;;;;;;8.40;2.63;;;20.30;96.60;;;;;;5068793;28;20390;-86
2022/05/31 07:18:10;;;;;;;5.80;2.60;;;20.30;96.80;;;;;;5071547;28;20502;-82
2022/05/31 07:20:35;;;;;;;5.78;3.08;;;20.40;96.20;;;;;;5069107;28;20386;-84
2022/05/31 07:23:01;;;;;;;5.37;2.10;;;20.40;96.60;;;;;;5070524;28;20502;-85
2022/05/31 07:25:27;;;;;;;4.73;1.60;;;20.40;96.10;;;;;;5068958;28;20393;-85
2022/05/31 07:27:53;;;;;;;10.95;2.58;;;20.30;95.80;;;;;;5065905;28;20424;-85
2022/05/31 07:30:23;;;;;;;5.20;1.70;;;20.40;95.50;;;;;;5067820;28;20385;-81
2022/05/31 07:32:49;;;;;;;3.78;1.70;;;20.40;95.20;;;;;;5068804;28;20811;-84
2022/05/31 07:35:16;;;;;;;3.55;1.60;;;20.30;95.30;;;;;;5069417;28;20414;-87
2022/05/31 07:37:42;;;;;;;3.53;1.52;;;20.10;96.00;;;;;;5068185;28;20420;-83
2022/05/31 07:40:08;;;;;;;5.82;1.60;;;19.80;94.70;;;;;;5068171;28;21078;-86
2022/05/31 07:42:34;;;;;;;4.63;1.60;;;19.60;94.80;;;;;;5067228;28;20485;-86
2022/05/31 07:45:00;;;;;;;4.32;1.50;;;19.70;94.50;;;;;;5069587;28;20396;-84
2022/05/31 07:47:26;;;;;;;3.10;1.40;;;19.70;95.10;;;;;;5067882;28;20385;-84
2022/05/31 07:49:51;;;;;;;3.25;1.38;;;19.80;93.90;;;;;;5068240;28;20867;-84
2022/05/31 07:52:18;;;;;;;2.75;1.38;;;19.80;93.80;;;;;;5067334;28;20463;-83
2022/05/31 07:54:44;;;;;;;3.58;1.52;;;19.90;94.20;;;;;;5065795;28;20383;-85
2022/05/31 07:58:30;;;;;;;4.40;1.50;;;20.10;93.50;;;;;;5068902;28;20401;-86
2022/05/31 07:59:55;;;;;;;6.30;1.55;;;20.20;94.80;;;;;;5067565;28;20390;-85
2022/05/31 08:02:21;;;;;;;3.85;1.40;;;20.30;92.40;;;;;;5072373;28;20414;-86
2022/05/31 08:04:47;;;;;;;2.97;1.50;;;20.30;93.30;;;;;;5074524;28;20374;-85
2022/05/31 08:07:12;;;;;;;4.85;1.80;;;20.40;93.90;;;;;;5075162;28;20401;-87
2022/05/31 08:09:38;;;;;;;3.93;1.37;;;20.50;93.60;;;;;;5072835;28;20375;-85
2022/05/31 08:12:13;;;;;;;4.40;1.45;;;20.60;90.80;;;;;;5073522;28;20887;-85
2022/05/31 08:14:39;;;;;;;4.10;1.52;;;20.50;92.70;;;;;;5074214;28;20386;-85
2022/05/31 08:17:05;;;;;;;2.88;1.30;;;20.50;92.20;;;;;;5072226;28;20419;-85
2022/05/31 08:19:31;;;;;;;2.50;1.40;;;20.50;91.40;;;;;;5074600;28;20381;-84
2022/05/31 08:21:57;;;;;;;3.75;1.40;;;20.40;90.20;;;;;;5072327;28;20420;-84
2022/05/31 08:24:24;;;;;;;2.63;1.40;;;20.30;91.40;;;;;;5073661;28;20872;-84
2022/05/31 08:26:49;;;;;;;3.70;1.50;;;20.40;90.50;;;;;;5073435;28;20389;-84
2022/05/31 08:29:16;;;;;;;3.95;1.30;;;20.50;91.00;;;;;;5072469;28;20366;-82
2022/05/31 08:31:42;;;;;;;3.30;1.42;;;20.60;91.30;;;;;;5073675;28;20451;-85
2022/05/31 08:34:08;;;;;;;2.20;1.20;;;20.60;90.20;;;;;;5071948;28;20720;-85
2022/05/31 08:36:36;;;;;;;3.70;1.70;;;20.60;90.80;;;;;;5073099;28;20470;-84
2022/05/31 08:39:03;;;;;;;3.05;1.30;;;20.60;91.20;;;;;;5073552;28;20401;-84
2022/05/31 08:41:31;;;;;;;3.85;1.20;;;20.30;90.30;;;;;;5075349;28;20401;-83
2022/05/31 08:44:30;;;;;;;2.33;1.27;;;19.90;91.40;;;;;;5074852;28;20414;-85
2022/05/31 08:47:36;;;;;;;4.05;1.42;;;19.90;91.70;;;;;;5073331;28;20370;-85
2022/05/31 08:53:47;;;;;;;2.67;1.50;;;19.00;91.60;;;;;;5074359;28;20732;-83
2022/05/31 08:59:05;;;;;;;3.50;1.55;;;18.60;93.60;;;;;;5072016;28;20396;-86
2022/05/31 09:01:42;;;;;;;3.63;1.43;;;18.40;93.60;;;;;;5071267;28;20374;-84
2022/05/31 09:04:17;;;;;;;6.60;1.70;;;18.60;94.90;;;;;;5071684;28;20408;-85
2022/05/31 09:06:49;;;;;;;2.90;1.38;;;19.00;95.10;;;;;;5071375;28;20386;-83
2022/05/31 09:09:38;;;;;;;3.75;1.55;;;19.70;94.20;;;;;;5071342;28;20424;-85
2022/05/31 09:12:18;;;;;;;2.53;1.20;;;20.20;89.90;;;;;;5070249;28;20388;-83
2022/05/31 09:14:44;;;;;;;2.90;1.40;;;20.60;89.60;;;;;;5072292;28;20389;-84
2022/05/31 09:17:26;;;;;;;2.83;1.47;;;20.80;88.90;;;;;;5070116;28;20884;-84
2022/05/31 09:20:17;;;;;;;3.88;1.40;;;20.80;89.50;;;;;;5070030;28;20386;-85
2022/05/31 09:22:45;;;;;;;2.90;1.30;;;20.90;90.90;;;;;;5072104;28;20449;-88
2022/05/31 09:25:12;;;;;;;3.22;1.30;;;21.20;90.60;;;;;;5071623;28;20435;-86
2022/05/31 09:27:47;;;;;;;5.03;1.65;;;21.50;90.50;;;;;;5105218;28;20917;-85
2022/05/31 09:30:28;;;;;;;4.30;1.50;;;21.50;86.60;;;;;;5070711;28;20394;-87
2022/05/31 09:32:54;;;;;;;5.60;1.55;;;21.20;83.70;;;;;;5071590;28;20382;-83
2022/05/31 09:35:41;;;;;;;4.50;1.50;;;20.80;82.30;;;;;;5070685;28;20363;-84
2022/05/31 09:38:35;;;;;;;5.25;1.42;;;21.00;82.80;;;;;;5068817;28;20934;-86
2022/05/31 09:41:06;;;;;;;2.40;1.30;;;21.40;86.80;;;;;;5069413;28;20394;-86
2022/05/31 09:43:38;;;;;;;2.28;1.40;;;21.80;86.30;;;;;;5070887;28;20402;-84
2022/05/31 09:46:08;;;;;;;3.15;1.30;;;22.30;81.30;;;;;;5070431;28;20414;-83
2022/05/31 09:48:43;;;;;;;3.80;1.70;;;22.20;81.70;;;;;;5070838;28;20378;-87
2022/05/31 09:51:35;;;;;;;3.65;1.30;;;22.20;82.10;;;;;;5070850;28;20386;-87
2022/05/31 09:59:30;;;;;;;4.00;1.50;;;22.20;82.90;;;;;;5060387;28;20397;-86
2022/05/31 10:02:14;;;;;;;2.60;1.20;;;22.10;82.30;;;;;;5088691;28;20394;-85
2022/05/31 10:04:41;;;;;;;3.85;1.58;;;22.20;77.20;;;;;;5091047;28;20393;-85
2022/05/31 10:07:08;;;;;;;3.50;1.52;;;22.10;82.50;;;;;;5071270;28;20887;-83
2022/05/31 10:09:48;;;;;;;4.05;1.55;;;22.10;80.60;;;;;;5070071;28;20763;-87
2022/05/31 10:12:26;;;;;;;2.95;1.50;;;22.10;81.80;;;;;;5067697;28;20390;-87
2022/05/31 10:14:54;;;;;;;6.43;1.83;;;21.90;81.70;;;;;;5068981;28;20378;-85
2022/05/31 10:17:37;;;;;;;7.15;1.90;;;21.50;82.60;;;;;;5070100;28;20406;-87
2022/05/31 10:20:19;;;;;;;4.68;2.00;;;21.80;83.30;;;;;;5071525;28;20432;-85
2022/05/31 10:23:00;;;;;;;3.72;1.58;;;22.10;82.10;;;;;;5070529;28;20417;-87
2022/05/31 10:25:26;;;;;;;3.90;1.63;;;22.40;80.90;;;;;;5070969;28;20450;-84
2022/05/31 10:27:58;;;;;;;4.57;1.40;;;22.40;79.70;;;;;;5067995;28;20482;-89
2022/05/31 10:30:24;;;;;;;3.92;1.48;;;22.60;80.60;;;;;;5070405;28;20485;-85
2022/05/31 10:32:56;;;;;;;2.47;1.50;;;22.70;77.50;;;;;;5069605;28;20398;-85
2022/05/31 10:35:31;;;;;;;2.25;1.42;;;22.60;77.70;;;;;;5086357;28;20478;-85
2022/05/31 10:38:01;;;;;;;4.13;1.40;;;22.70;78.60;;;;;;5055964;28;20390;-85
2022/05/31 10:40:35;;;;;;;4.60;1.38;;;22.80;77.00;;;;;;5069276;28;20439;-86
2022/05/31 10:43:19;;;;;;;4.10;1.40;;;22.70;80.90;;;;;;5068638;28;20515;-86
2022/05/31 10:45:46;;;;;;;3.70;1.58;;;22.70;79.30;;;;;;5068187;28;20556;-86
2022/05/31 10:48:12;;;;;;;3.08;1.60;;;22.50;76.20;;;;;;5069063;28;20382;-85
2022/05/31 10:51:07;;;;;;;3.28;1.65;;;22.10;78.10;;;;;;5069884;28;20386;-85
2022/05/31 10:54:17;;;;;;;3.55;1.80;;;21.70;79.80;;;;;;5069480;28;20823;-86
2022/05/31 10:57:06;;;;;;;3.60;1.90;;;21.50;85.20;;;;;;5072488;28;20398;-86
2022/05/31 10:59:41;;;;;;;4.70;1.60;;;21.50;81.70;;;;;;5069506;28;20387;-84
2022/05/31 11:02:35;;;;;;;6.97;1.80;;;21.60;83.00;;;;;;5048478;28;20403;-85
2022/05/31 11:05:29;;;;;;;5.03;1.60;;;22.00;83.00;;;;;;5070962;28;20390;-86
2022/05/31 11:11:33;;;;;;;2.33;1.37;;;22.40;82.30;;;;;;5050060;28;20437;-85
2022/05/31 11:14:07;;;;;;;5.70;1.73;;;22.40;82.50;;;;;;5051444;28;20388;-85
2022/05/31 11:16:55;;;;;;;3.58;1.58;;;22.30;80.60;;;;;;5048350;28;20812;-86
2022/05/31 11:19:33;;;;;;;4.72;1.33;;;22.20;78.10;;;;;;5049645;28;20392;-86
2022/05/31 11:22:01;;;;;;;2.88;1.58;;;22.10;81.40;;;;;;5065477;28;20390;-86
2022/05/31 11:24:44;;;;;;;3.10;1.50;;;22.10;82.60;;;;;;5071070;28;20444;-84
2022/05/31 11:27:19;;;;;;;3.45;1.60;;;22.20;80.40;;;;;;5070240;28;20386;-86
2022/05/31 11:29:53;;;;;;;3.35;1.58;;;22.40;81.00;;;;;;5070424;28;20857;-84
2022/05/31 11:32:40;;;;;;;4.43;1.60;;;22.50;76.10;;;;;;5071188;28;20370;-86
2022/05/31 11:35:18;;;;;;;4.07;1.55;;;22.40;79.50;;;;;;5071774;28;20751;-86
2022/05/31 11:38:01;;;;;;;3.65;1.60;;;22.40;76.20;;;;;;5072842;28;20931;-85
2022/05/31 11:40:33;;;;;;;4.10;1.70;;;21.90;75.90;;;;;;5055346;28;20429;-87
2022/05/31 11:43:29;;;;;;;7.60;1.90;;;21.70;78.70;;;;;;5074762;28;20401;-85
2022/05/31 11:46:22;;;;;;;3.45;1.58;;;21.60;78.30;;;;;;5070316;28;20894;-89
2022/05/31 11:48:52;;;;;;;3.42;1.55;;;21.80;80.70;;;;;;5071759;28;20390;-84
2022/05/31 11:51:27;;;;;;;5.22;1.67;;;21.80;76.40;;;;;;5068681;28;20481;-85
2022/05/31 11:54:04;;;;;;;4.63;1.58;;;21.60;79.80;;;;;;5072771;28;20735;-84
2022/05/31 11:56:37;;;;;;;3.00;1.55;;;21.50;80.10;;;;;;5074182;28;20387;-88
2022/05/31 11:59:27;;;;;;;5.85;1.60;;;21.50;81.00;;;;;;5074339;28;20382;-87
2022/05/31 12:02:12;;;;;;;5.78;1.80;;;21.60;82.10;;;;;;5073585;28;20412;-84
2022/05/31 12:04:44;;;;;;;3.90;1.60;;;22.10;80.60;;;;;;5071516;28;20398;-85
2022/05/31 12:07:12;;;;;;;15.38;2.55;;;22.40;77.40;;;;;;5073232;28;20400;-85
2022/05/31 12:09:48;;;;;;;3.38;1.50;;;22.60;79.00;;;;;;5071749;28;20414;-86
2022/05/31 12:12:31;;;;;;;3.63;1.50;;;22.70;76.10;;;;;;5073506;28;20717;-85
2022/05/31 12:15:20;;;;;;;4.90;1.50;;;22.40;77.10;;;;;;5070783;28;20982;-84
2022/05/31 12:18:17;;;;;;;4.60;1.58;;;22.60;80.90;;;;;;5071242;28;20385;-85
2022/05/31 12:20:57;;;;;;;3.30;1.50;;;22.80;78.40;;;;;;5072327;28;20397;-84
2022/05/31 12:23:34;;;;;;;3.42;1.50;;;23.10;73.50;;;;;;5070782;28;20543;-86
2022/05/31 12:26:04;;;;;;;4.75;1.60;;;22.90;74.60;;;;;;5074434;28;20480;-86
2022/05/31 12:29:12;;;;;;;4.10;1.58;;;22.80;77.30;;;;;;5056023;28;20374;-87
2022/05/31 12:31:39;;;;;;;5.75;1.95;;;22.80;77.20;;;;;;5042467;28;20390;-86
2022/05/31 12:34:31;;;;;;;3.50;1.67;;;23.00;76.10;;;;;;5073626;28;20390;-85
2022/05/31 12:36:58;;;;;;;5.35;1.70;;;23.00;75.00;;;;;;5071986;28;20390;-88
2022/05/31 12:39:30;;;;;;;2.83;1.60;;;22.90;76.00;;;;;;5073158;28;20370;-86
2022/05/31 12:41:57;;;;;;;4.80;1.70;;;22.90;76.40;;;;;;5071382;28;20394;-87
2022/05/31 12:44:34;;;;;;;3.20;1.58;;;23.30;75.20;;;;;;5074300;28;20402;-86
2022/05/31 12:47:15;;;;;;;4.00;1.73;;;23.60;75.40;;;;;;5072166;28;20467;-86
2022/05/31 12:49:52;;;;;;;2.70;1.43;;;23.60;75.60;;;;;;5074371;28;20378;-86
2022/05/31 12:54:59;;;;;;;4.45;1.60;;;23.80;74.50;;;;;;5073114;28;20478;-85
2022/05/31 12:58:26;;;;;;;7.95;2.00;;;23.90;76.00;;;;;;5071783;28;20378;-84
2022/05/31 13:00:34;;;;;;;3.38;1.50;;;23.90;74.00;;;;;;5072530;28;20908;-93
2022/05/31 13:03:20;;;;;;;3.63;1.50;;;23.80;74.30;;;;;;5074157;28;20402;-88
2022/05/31 13:06:07;;;;;;;4.40;1.80;;;24.00;71.60;;;;;;5073750;28;20943;-86
2022/05/31 13:08:48;;;;;;;2.90;1.30;;;23.60;71.20;;;;;;5073519;28;20382;-86
2022/05/31 13:20:43;;;;;;;2.65;1.27;;;23.10;74.90;;;;;;5072334;28;20459;-87
2022/05/31 13:23:11;;;;;;;8.02;2.10;;;23.10;75.00;;;;;;5063963;28;20394;-88
2022/05/31 13:25:49;;;;;;;2.78;1.55;;;22.70;77.10;;;;;;5073202;28;20875;-86
2022/05/31 13:28:30;;;;;;;5.10;1.60;;;22.60;76.00;;;;;;5070851;28;20406;-87
2022/05/31 13:31:13;;;;;;;4.00;1.60;;;22.30;74.00;;;;;;5067959;28;20382;-86
2022/05/31 13:33:39;;;;;;;7.43;1.63;;;21.80;74.50;;;;;;5068970;28;20472;-88
2022/05/31 13:36:13;;;;;;;5.65;1.70;;;21.70;75.90;;;;;;5070052;28;20413;-87
2022/05/31 13:38:43;;;;;;;4.00;1.52;;;21.60;76.70;;;;;;5069480;28;20432;-86
2022/05/31 13:41:12;;;;;;;3.47;1.40;;;21.60;75.30;;;;;;5070173;28;20443;-86
2022/05/31 13:43:47;;;;;;;2.72;1.40;;;21.70;78.40;;;;;;5071462;28;20402;-84
2022/05/31 13:46:42;;;;;;;4.97;1.70;;;21.80;77.90;;;;;;5070873;28;20398;-86
2022/05/31 13:49:23;;;;;;;2.80;1.50;;;21.90;81.00;;;;;;5064783;28;20397;-88
2022/05/31 13:51:51;;;;;;;10.48;2.10;;;22.20;76.00;;;;;;5059128;28;20422;-85
2022/05/31 13:54:21;;;;;;;2.60;1.40;;;22.40;77.10;;;;;;5052200;28;20492;-86